createdAt,value
2019-05-07T00:01:56.867Z,16.47
2019-05-07T00:05:12.047Z,14.73
2019-05-07T00:08:25.828Z,12.30
2019-05-07T00:11:39.753Z,11.27
2019-05-07T00:15:00.941Z,11.13
2019-05-07T00:18:08.974Z,11.47
2019-05-07T00:21:23.464Z,10.70
2019-05-07T00:24:37.072Z,9.80
2019-05-07T00:27:52.334Z,12.57
2019-05-07T00:31:06.070Z,11.07
2019-05-07T00:34:22.089Z,9.90
2019-05-07T00:37:43.159Z,8.73
2019-05-07T00:41:16.242Z,10.00
2019-05-07T00:44:32.693Z,12.20
2019-05-07T00:47:46.143Z,10.50
2019-05-07T00:51:18.061Z,13.30
2019-05-07T00:54:32.545Z,10.97
2019-05-07T00:57:46.104Z,9.37
2019-05-07T01:00:59.601Z,9.63
2019-05-07T01:04:13.217Z,10.87
2019-05-07T01:07:26.819Z,10.17
2019-05-07T01:10:41.973Z,9.13
2019-05-07T01:13:55.559Z,9.30
2019-05-07T01:17:09.440Z,12.57
2019-05-07T01:20:22.947Z,10.33
2019-05-07T01:23:36.638Z,9.53
2019-05-07T01:26:50.345Z,9.53
2019-05-07T01:30:04.906Z,11.73
2019-05-07T01:33:44.516Z,9.97
2019-05-07T01:36:58.325Z,9.90
2019-05-07T01:40:12.326Z,10.50
2019-05-07T01:43:25.926Z,10.10
2019-05-07T01:46:39.421Z,11.37
2019-05-07T01:49:55.114Z,11.77
2019-05-07T01:53:08.681Z,9.37
2019-05-07T01:56:22.982Z,9.90
2019-05-07T01:59:36.566Z,13.83
2019-05-07T02:02:56.001Z,8.70
2019-05-07T02:06:32.792Z,10.00
2019-05-07T02:10:11.989Z,10.27
2019-05-07T02:13:25.544Z,11.33
2019-05-07T02:16:39.416Z,10.60
2019-05-07T02:19:52.909Z,9.53
2019-05-07T02:23:06.480Z,8.40
2019-05-07T02:26:22.378Z,8.90
2019-05-07T02:29:38.114Z,8.87
2019-05-07T02:32:54.026Z,8.73
2019-05-07T02:36:06.963Z,8.97
2019-05-07T02:39:27.363Z,10.23
2019-05-07T02:42:44.073Z,8.73
2019-05-07T02:46:26.471Z,8.70
2019-05-07T02:49:43.814Z,9.57
2019-05-07T02:53:04.382Z,11.77
2019-05-07T02:56:23.538Z,14.53
2019-05-07T02:59:36.782Z,9.23
2019-05-07T03:02:52.975Z,8.57
2019-05-07T03:06:06.153Z,9.23
2019-05-07T03:09:22.606Z,9.93
2019-05-07T03:12:35.115Z,11.47
2019-05-07T03:15:48.735Z,11.97
2019-05-07T03:19:04.117Z,8.90
2019-05-07T03:22:17.819Z,10.47
2019-05-07T03:25:53.807Z,11.03
2019-05-07T03:29:13.094Z,10.80
2019-05-07T03:32:38.190Z,9.23
2019-05-07T03:35:56.015Z,13.03
2019-05-07T03:39:09.353Z,10.37
2019-05-07T03:42:23.635Z,10.47
2019-05-07T03:45:57.153Z,13.77
2019-05-07T03:49:26.144Z,10.93
2019-05-07T03:52:42.632Z,8.57
2019-05-07T03:55:55.689Z,9.90
2019-05-07T03:59:13.038Z,9.57
2019-05-07T04:02:26.685Z,11.73
2019-05-07T04:05:43.028Z,11.97
2019-05-07T04:08:55.685Z,10.23
2019-05-07T04:12:09.295Z,10.47
2019-05-07T04:15:23.523Z,11.67
2019-05-07T04:18:37.534Z,10.93
2019-05-07T04:21:53.404Z,10.07
2019-05-07T04:25:24.714Z,12.70
2019-05-07T04:29:05.543Z,11.63
2019-05-07T04:32:23.171Z,11.17
2019-05-07T04:35:43.375Z,12.70
2019-05-07T04:38:57.121Z,10.07
2019-05-07T04:42:13.251Z,8.87
2019-05-07T04:45:26.335Z,10.57
2019-05-07T04:48:39.843Z,9.17
2019-05-07T04:52:04.558Z,13.93
2019-05-07T04:55:18.151Z,9.17
2019-05-07T04:58:33.842Z,10.40
2019-05-07T05:02:09.373Z,8.90
2019-05-07T05:05:24.061Z,9.60
2019-05-07T05:08:37.510Z,12.70
2019-05-07T05:11:53.058Z,17.17
2019-05-07T05:16:42.621Z,11.93
2019-05-07T05:19:56.502Z,11.70
2019-05-07T05:23:17.908Z,14.20
2019-05-07T05:26:32.483Z,16.63
2019-05-07T05:29:46.198Z,22.43
2019-05-07T05:33:02.207Z,16.80
2019-05-07T05:36:16.927Z,19.07
2019-05-07T05:39:32.038Z,13.73
2019-05-07T05:42:52.797Z,14.00
2019-05-07T05:46:06.905Z,15.40
2019-05-07T05:49:22.789Z,18.20
2019-05-07T05:52:43.441Z,17.13
2019-05-07T05:55:59.433Z,21.13
2019-05-07T05:59:44.985Z,13.50
2019-05-07T06:02:53.945Z,43.60
2019-05-07T06:06:14.340Z,43.23
2019-05-07T06:09:38.981Z,52.60
2019-05-07T06:13:12.438Z,40.60
2019-05-07T06:16:32.737Z,42.90
2019-05-07T06:19:51.861Z,41.63
2019-05-07T06:23:33.086Z,39.87
2019-05-07T06:26:46.701Z,44.60
2019-05-07T06:30:02.870Z,33.60
2019-05-07T06:33:15.793Z,45.07
2019-05-07T06:36:32.860Z,45.77
2019-05-07T06:40:08.215Z,45.80
2019-05-07T06:43:44.627Z,40.77
2019-05-07T06:46:58.472Z,35.97
2019-05-07T06:50:12.610Z,41.93
2019-05-07T06:53:28.073Z,39.43
2019-05-07T06:56:42.170Z,27.87
2019-05-07T06:59:59.725Z,23.90
2019-05-07T07:03:35.955Z,25.57
2019-05-07T07:07:08.056Z,17.93
2019-05-07T07:10:32.347Z,14.50
2019-05-07T07:13:46.177Z,16.70
2019-05-07T07:17:02.184Z,12.77
2019-05-07T07:20:15.685Z,13.17
2019-05-07T07:23:29.573Z,12.10
2019-05-07T07:26:43.623Z,12.83
2019-05-07T07:30:03.820Z,13.87
2019-05-07T07:33:18.123Z,10.03
2019-05-07T07:36:36.239Z,11.53
2019-05-07T07:39:52.468Z,11.10
2019-05-07T07:43:07.145Z,13.90
2019-05-07T07:46:22.174Z,9.80
2019-05-07T07:49:36.022Z,11.23
2019-05-07T07:52:49.845Z,11.47
2019-05-07T07:56:48.289Z,12.40
2019-05-07T07:59:56.950Z,9.97
2019-05-07T08:03:13.237Z,10.03
2019-05-07T08:06:28.539Z,9.83
2019-05-07T08:09:42.768Z,10.03
2019-05-07T08:12:56.839Z,8.77
2019-05-07T08:16:12.794Z,11.40
2019-05-07T08:19:26.053Z,9.67
2019-05-07T08:22:39.684Z,11.50
2019-05-07T08:25:53.197Z,10.57
2019-05-07T08:29:06.690Z,8.47
2019-05-07T08:32:27.528Z,9.97
2019-05-07T08:36:02.687Z,16.03
2019-05-07T08:39:16.518Z,10.13
2019-05-07T08:42:32.057Z,8.73
2019-05-07T08:45:54.929Z,9.80
2019-05-07T08:49:09.347Z,14.27
2019-05-07T08:52:26.155Z,9.43
2019-05-07T08:55:39.472Z,18.10
2019-05-07T08:58:53.194Z,10.60
2019-05-07T09:02:06.906Z,9.97
2019-05-07T09:05:22.097Z,9.63
2019-05-07T09:08:36.310Z,10.77
2019-05-07T09:11:51.857Z,8.80
2019-05-07T09:15:06.811Z,9.37
2019-05-07T09:18:22.836Z,7.67
2019-05-07T09:21:38.063Z,21.33
2019-05-07T09:24:52.673Z,12.43
2019-05-07T09:28:06.763Z,9.73
2019-05-07T09:31:32.223Z,7.20
2019-05-07T09:34:46.626Z,8.57
2019-05-07T09:38:00.122Z,8.83
2019-05-07T09:41:25.823Z,10.17
2019-05-07T09:44:39.703Z,6.07
2019-05-07T09:47:53.410Z,6.27
2019-05-07T09:51:07.210Z,5.13
2019-05-07T09:54:22.984Z,6.43
2019-05-07T09:57:36.629Z,6.50
2019-05-07T10:00:50.345Z,8.27
2019-05-07T10:04:04.260Z,4.70
2019-05-07T10:07:18.202Z,5.60
2019-05-07T10:10:32.910Z,4.73
2019-05-07T10:13:58.096Z,4.93
2019-05-07T10:17:17.933Z,6.00
2019-05-07T10:20:32.799Z,4.60
2019-05-07T10:23:46.691Z,4.13
2019-05-07T10:27:02.258Z,4.90
2019-05-07T10:30:16.196Z,5.57
2019-05-07T10:33:31.790Z,5.63
2019-05-07T10:36:45.553Z,4.13
2019-05-07T10:39:59.578Z,4.67
2019-05-07T10:43:13.270Z,6.90
2019-05-07T10:46:45.782Z,4.27
2019-05-07T10:50:17.613Z,7.23
2019-05-07T10:53:32.079Z,7.37
2019-05-07T10:56:45.773Z,6.03
2019-05-07T10:59:59.554Z,5.07
2019-05-07T11:03:13.175Z,5.63
2019-05-07T11:06:27.132Z,5.00
2019-05-07T11:09:42.038Z,4.67
2019-05-07T11:12:56.161Z,4.40
2019-05-07T11:16:12.673Z,5.20
2019-05-07T11:19:26.278Z,5.57
2019-05-07T11:22:40.036Z,4.77
2019-05-07T11:25:53.744Z,4.53
2019-05-07T11:29:07.609Z,7.27
2019-05-07T11:32:21.631Z,5.13
2019-05-07T11:35:35.646Z,7.13
2019-05-07T11:38:49.494Z,8.23
2019-05-07T11:42:26.208Z,8.13
2019-05-07T11:45:54.021Z,5.63
2019-05-07T11:49:17.160Z,5.67
2019-05-07T11:52:35.869Z,5.93
2019-05-07T11:55:49.950Z,6.20
2019-05-07T11:59:04.275Z,4.70
2019-05-07T12:02:18.007Z,8.00
2019-05-07T12:05:33.253Z,7.47
2019-05-07T12:08:51.850Z,5.27
2019-05-07T12:12:02.649Z,5.57
2019-05-07T12:16:36.042Z,5.17
2019-05-07T12:19:49.978Z,4.17
2019-05-07T12:23:03.885Z,3.73
2019-05-07T12:26:17.485Z,5.20
2019-05-07T12:29:32.228Z,6.53
2019-05-07T12:32:54.422Z,4.63
2019-05-07T12:36:09.646Z,10.20
2019-05-07T12:39:23.297Z,6.17
2019-05-07T12:42:37.498Z,6.33
2019-05-07T12:45:52.511Z,5.47
2019-05-07T12:49:06.349Z,7.50
2019-05-07T12:52:34.959Z,6.97
2019-05-07T12:55:54.645Z,4.30
2019-05-07T12:59:08.876Z,4.67
2019-05-07T13:02:43.583Z,5.97
2019-05-07T13:05:56.025Z,8.47
2019-05-07T13:09:09.661Z,7.20
2019-05-07T13:12:23.310Z,4.07
2019-05-07T13:15:37.016Z,6.53
2019-05-07T13:18:52.466Z,5.20
2019-05-07T13:22:06.138Z,5.33
2019-05-07T13:25:21.605Z,5.70
2019-05-07T13:28:36.034Z,8.53
2019-05-07T13:31:54.339Z,4.93
2019-05-07T13:35:08.489Z,5.13
2019-05-07T13:38:44.681Z,5.23
2019-05-07T13:42:04.286Z,8.13
2019-05-07T13:45:41.687Z,9.67
2019-05-07T13:48:57.187Z,4.67
2019-05-07T13:52:11.824Z,12.97
2019-05-07T13:55:25.433Z,9.03
2019-05-07T13:58:39.155Z,5.07
2019-05-07T14:02:06.257Z,12.50
2019-05-07T14:05:21.761Z,5.43
2019-05-07T14:08:38.066Z,9.43
2019-05-07T14:11:52.864Z,6.90
2019-05-07T14:15:06.869Z,5.33
2019-05-07T14:18:23.229Z,6.63
2019-05-07T14:21:36.247Z,5.20
2019-05-07T14:24:50.366Z,6.40
2019-05-07T14:28:04.212Z,6.73
2019-05-07T14:31:17.918Z,7.17
2019-05-07T14:34:54.101Z,4.67
2019-05-07T14:38:13.886Z,6.73
2019-05-07T14:41:27.686Z,6.07
2019-05-07T14:44:48.364Z,10.87
2019-05-07T14:48:02.947Z,10.70
2019-05-07T14:51:17.149Z,4.23
2019-05-07T14:54:32.254Z,5.77
2019-05-07T14:57:46.289Z,7.30
2019-05-07T15:01:02.268Z,7.47
2019-05-07T15:04:15.679Z,6.03
2019-05-07T15:07:29.289Z,10.97
2019-05-07T15:10:43.338Z,8.17
2019-05-07T15:13:57.364Z,15.90
2019-05-07T15:17:24.275Z,38.23
2019-05-07T15:20:38.299Z,5.87
2019-05-07T15:23:53.994Z,4.40
2019-05-07T15:27:08.285Z,5.33
2019-05-07T15:30:23.412Z,5.20
2019-05-07T15:33:37.020Z,5.27
2019-05-07T15:36:52.608Z,7.73
2019-05-07T15:40:07.154Z,7.13
2019-05-07T15:43:21.065Z,4.30
2019-05-07T15:46:34.758Z,4.33
2019-05-07T15:49:48.260Z,7.03
2019-05-07T15:53:13.994Z,5.67
2019-05-07T15:56:27.506Z,4.40
2019-05-07T15:59:41.808Z,6.47
2019-05-07T16:03:06.281Z,5.20
2019-05-07T16:06:22.002Z,4.23
2019-05-07T16:09:44.435Z,5.03
2019-05-07T16:12:58.164Z,3.87
2019-05-07T16:16:12.108Z,5.63
2019-05-07T16:19:27.289Z,4.67
2019-05-07T16:22:44.520Z,4.67
2019-05-07T16:25:58.197Z,5.17
2019-05-07T16:29:13.275Z,6.20
2019-05-07T16:32:27.039Z,5.10
2019-05-07T16:35:42.552Z,8.13
2019-05-07T16:38:56.194Z,5.20
2019-05-07T16:42:09.948Z,4.23
2019-05-07T16:45:23.590Z,5.23
2019-05-07T16:48:37.472Z,5.17
2019-05-07T16:51:52.462Z,4.33
2019-05-07T16:55:06.533Z,3.80
2019-05-07T16:58:26.370Z,4.20
2019-05-07T17:01:40.021Z,6.43
2019-05-07T17:05:13.078Z,5.20
2019-05-07T17:08:31.866Z,3.53
2019-05-07T17:11:45.854Z,4.90
2019-05-07T17:14:59.682Z,3.30
2019-05-07T17:18:13.192Z,3.47
2019-05-07T17:21:26.715Z,4.67
2019-05-07T17:24:42.255Z,4.73
2019-05-07T17:27:55.853Z,40.67
2019-05-07T17:31:09.559Z,6.67
2019-05-07T17:34:23.102Z,3.27
2019-05-07T17:37:36.626Z,4.27
2019-05-07T17:40:52.178Z,4.17
2019-05-07T17:44:06.153Z,6.63
2019-05-07T17:47:21.838Z,3.47
2019-05-07T17:51:04.323Z,4.53
2019-05-07T17:54:17.998Z,4.90
2019-05-07T17:57:33.482Z,3.70
2019-05-07T18:00:49.317Z,10.10
2019-05-07T18:04:03.127Z,3.90
2019-05-07T18:07:16.656Z,3.30
2019-05-07T18:10:31.965Z,3.67
2019-05-07T18:13:45.874Z,4.37
2019-05-07T18:17:19.048Z,4.73
2019-05-07T18:20:32.910Z,3.70
2019-05-07T18:23:46.451Z,5.30
2019-05-07T18:27:01.911Z,12.40
2019-05-07T18:30:16.619Z,10.70
2019-05-07T18:33:52.471Z,18.83
2019-05-07T18:37:06.243Z,7.60
2019-05-07T18:40:20.592Z,4.40
2019-05-07T18:43:34.186Z,2.63
2019-05-07T18:46:47.815Z,3.60
2019-05-07T18:50:02.834Z,3.57
2019-05-07T18:53:16.561Z,4.00
2019-05-07T18:56:30.159Z,3.50
2019-05-07T18:59:43.654Z,3.23
2019-05-07T19:02:57.262Z,5.37
2019-05-07T19:06:13.147Z,4.70
2019-05-07T19:09:26.900Z,4.67
2019-05-07T19:12:42.060Z,5.13
2019-05-07T19:15:56.612Z,5.47
2019-05-07T19:19:12.321Z,3.60
2019-05-07T19:22:25.892Z,5.80
2019-05-07T19:25:41.900Z,4.47
2019-05-07T19:28:55.434Z,4.33
2019-05-07T19:32:12.102Z,4.77
2019-05-07T19:35:25.637Z,5.07
2019-05-07T19:38:39.231Z,5.67
2019-05-07T19:41:53.163Z,13.20
2019-05-07T19:45:06.861Z,9.47
2019-05-07T19:48:20.457Z,43.70
2019-05-07T19:51:33.957Z,22.60
2019-05-07T19:54:58.745Z,8.00
2019-05-07T19:58:05.285Z,7.23
2019-05-07T20:01:27.042Z,4.87
2019-05-07T20:04:42.647Z,8.60
2019-05-07T20:07:59.587Z,6.50
2019-05-07T20:11:17.684Z,9.13
2019-05-07T20:14:33.110Z,6.17
2019-05-07T20:17:46.865Z,9.27
2019-05-07T20:21:02.559Z,6.00
2019-05-07T20:24:15.985Z,19.53
2019-05-07T20:27:29.493Z,15.37
2019-05-07T20:30:43.340Z,5.53
2019-05-07T20:33:57.083Z,6.07
2019-05-07T20:37:12.722Z,7.93
2019-05-07T20:40:26.250Z,12.57
2019-05-07T20:43:39.756Z,6.33
2019-05-07T20:46:53.764Z,12.83
2019-05-07T20:50:07.601Z,8.63
2019-05-07T20:53:42.338Z,6.13
2019-05-07T20:57:02.250Z,5.93
2019-05-07T21:00:24.008Z,8.57
2019-05-07T21:03:37.502Z,7.27
2019-05-07T21:06:52.533Z,6.90
2019-05-07T21:10:06.580Z,8.13
2019-05-07T21:16:35.034Z,8.53
2019-05-07T21:19:48.627Z,8.53
2019-05-07T21:23:02.749Z,11.20
2019-05-07T21:26:16.267Z,10.33
2019-05-07T21:29:32.465Z,15.67
2019-05-07T21:32:45.545Z,21.97
2019-05-07T21:35:59.155Z,13.23
2019-05-07T21:39:13.197Z,21.47
2019-05-07T21:42:26.796Z,7.93
2019-05-07T21:45:42.325Z,11.57
2019-05-07T21:48:55.962Z,7.50
2019-05-07T21:52:09.437Z,7.93
2019-05-07T21:55:32.466Z,7.13
2019-05-07T21:58:54.105Z,7.70
2019-05-07T22:02:18.425Z,5.43
2019-05-07T22:05:31.949Z,4.87
2019-05-07T22:08:45.652Z,6.83
2019-05-07T22:11:59.238Z,8.43
2019-05-07T22:15:13.100Z,6.97
2019-05-07T22:18:26.569Z,8.53
2019-05-07T22:21:40.107Z,5.23
2019-05-07T22:24:53.589Z,6.53
2019-05-07T22:28:07.461Z,4.20
2019-05-07T22:31:44.184Z,7.13
2019-05-07T22:35:19.295Z,28.33
2019-05-07T22:38:32.895Z,14.63
2019-05-07T22:41:46.618Z,9.90
2019-05-07T22:45:02.623Z,9.50
2019-05-07T22:48:15.996Z,5.30
2019-05-07T22:51:29.476Z,5.43
2019-05-07T22:54:43.082Z,7.13
2019-05-07T22:58:04.728Z,5.90
2019-05-07T23:01:18.328Z,6.37
2019-05-07T23:04:32.656Z,4.90
2019-05-07T23:07:46.189Z,9.87
2019-05-07T23:10:59.690Z,7.33
2019-05-07T23:14:13.546Z,6.13
2019-05-07T23:17:27.321Z,4.87
2019-05-07T23:20:42.676Z,6.37
2019-05-07T23:23:56.492Z,7.87
2019-05-07T23:30:42.119Z,6.17
2019-05-07T23:33:55.642Z,6.53
2019-05-07T23:37:09.133Z,6.27
2019-05-07T23:40:30.452Z,6.73
2019-05-07T23:44:03.615Z,7.10
2019-05-07T23:47:17.213Z,7.33
2019-05-07T23:50:32.394Z,6.77
2019-05-07T23:53:46.398Z,8.63
2019-05-07T23:57:08.757Z,6.90
